createdAt,value
2018-09-08T00:01:11.810Z,64.30
2018-09-08T00:03:44.284Z,63.10
2018-09-08T00:06:19.549Z,64.10
2018-09-08T00:08:52.119Z,65.50
2018-09-08T00:11:23.463Z,64.50
2018-09-08T00:13:55.226Z,63.70
2018-09-08T00:16:31.320Z,63.70
2018-09-08T00:19:06.817Z,63.90
2018-09-08T00:21:44.008Z,63.90
2018-09-08T00:24:19.387Z,62.30
2018-09-08T00:26:49.880Z,63.60
2018-09-08T00:29:24.446Z,63.40
2018-09-08T00:31:56.124Z,64.10
2018-09-08T00:34:28.390Z,63.70
2018-09-08T00:36:59.079Z,63.80
2018-09-08T00:39:29.636Z,63.70
2018-09-08T00:42:00.967Z,63.70
2018-09-08T00:44:31.515Z,63.60
2018-09-08T00:47:02.082Z,63.70
2018-09-08T00:49:33.406Z,63.40
2018-09-08T00:52:04.162Z,63.20
2018-09-08T00:54:34.710Z,63.30
2018-09-08T00:57:05.646Z,63.20
2018-09-08T00:59:36.941Z,63.20
2018-09-08T01:02:07.450Z,63.70
2018-09-08T01:04:39.070Z,63.60
2018-09-08T01:07:14.450Z,64.00
2018-09-08T01:09:45.287Z,64.50
2018-09-08T01:12:15.791Z,64.30
2018-09-08T01:14:47.275Z,64.20
2018-09-08T01:17:17.945Z,64.40
2018-09-08T01:19:48.275Z,64.70
2018-09-08T01:22:19.254Z,64.40
2018-09-08T01:24:49.786Z,64.70
2018-09-08T01:27:20.252Z,65.30
2018-09-08T01:29:50.703Z,65.40
2018-09-08T01:32:22.098Z,65.00
2018-09-08T01:34:52.710Z,64.60
2018-09-08T01:37:24.712Z,64.30
2018-09-08T01:39:58.291Z,65.10
2018-09-08T01:42:31.884Z,65.00
2018-09-08T01:45:03.159Z,65.20
2018-09-08T01:47:35.583Z,65.50
2018-09-08T01:50:07.056Z,65.10
2018-09-08T01:52:37.427Z,65.00
2018-09-08T01:55:11.471Z,64.80
2018-09-08T01:57:42.049Z,64.60
2018-09-08T02:00:13.538Z,64.10
2018-09-08T02:02:43.985Z,64.40
2018-09-08T02:05:14.757Z,64.40
2018-09-08T02:07:45.438Z,64.10
2018-09-08T02:10:16.098Z,64.30
2018-09-08T02:12:47.801Z,64.20
2018-09-08T02:15:19.591Z,64.00
2018-09-08T02:17:51.109Z,64.10
2018-09-08T02:20:21.976Z,63.70
2018-09-08T02:22:52.932Z,63.90
2018-09-08T02:25:24.075Z,63.50
2018-09-08T02:27:54.511Z,64.20
2018-09-08T02:30:25.352Z,63.50
2018-09-08T02:32:55.678Z,64.10
2018-09-08T02:35:27.145Z,64.20
2018-09-08T02:37:57.592Z,64.90
2018-09-08T02:40:27.986Z,64.90
2018-09-08T02:42:58.858Z,66.80
2018-09-08T02:45:29.371Z,66.20
2018-09-08T02:47:59.989Z,65.80
2018-09-08T02:50:29.756Z,65.50
2018-09-08T02:52:58.275Z,66.00
2018-09-08T02:55:26.843Z,65.70
2018-09-08T02:57:55.704Z,65.50
2018-09-08T03:00:24.381Z,65.20
2018-09-08T03:02:53.136Z,65.20
2018-09-08T03:05:22.216Z,64.80
2018-09-08T03:07:50.892Z,64.80
2018-09-08T03:10:19.893Z,64.70
2018-09-08T03:12:48.800Z,64.50
2018-09-08T03:15:17.278Z,64.90
2018-09-08T03:17:45.843Z,65.50
2018-09-08T03:20:14.420Z,65.40
2018-09-08T03:22:42.878Z,65.00
2018-09-08T03:25:11.459Z,64.70
2018-09-08T03:27:39.890Z,65.10
2018-09-08T03:30:08.345Z,65.10
2018-09-08T03:32:37.099Z,65.30
2018-09-08T03:35:07.409Z,65.30
2018-09-08T03:37:35.866Z,65.50
2018-09-08T03:40:04.698Z,65.40
2018-09-08T03:42:33.294Z,65.50
2018-09-08T03:45:02.010Z,65.60
2018-09-08T03:47:30.608Z,66.00
2018-09-08T03:50:00.056Z,66.10
2018-09-08T03:52:28.493Z,65.90
2018-09-08T03:54:56.953Z,66.10
2018-09-08T03:57:25.746Z,66.80
2018-09-08T03:59:54.156Z,66.80
2018-09-08T04:02:22.574Z,66.60
2018-09-08T04:04:53.445Z,67.00
2018-09-08T04:07:23.843Z,67.10
2018-09-08T04:09:54.195Z,66.80
2018-09-08T04:12:24.923Z,67.10
2018-09-08T04:14:56.023Z,67.70
2018-09-08T04:17:27.399Z,67.10
2018-09-08T04:19:58.086Z,66.60
2018-09-08T04:22:32.738Z,67.00
2018-09-08T04:25:11.216Z,66.70
2018-09-08T04:27:42.139Z,66.80
2018-09-08T04:30:12.585Z,67.10
2018-09-08T04:32:45.149Z,67.40
2018-09-08T04:35:15.535Z,67.50
2018-09-08T04:37:45.958Z,67.70
2018-09-08T04:40:17.958Z,67.30
2018-09-08T04:42:49.281Z,66.80
2018-09-08T04:45:19.690Z,67.70
2018-09-08T04:47:50.052Z,67.50
2018-09-08T04:50:20.373Z,67.70
2018-09-08T04:52:50.842Z,68.10
2018-09-08T04:55:21.330Z,67.70
2018-09-08T04:57:52.160Z,67.40
2018-09-08T05:00:22.610Z,67.30
2018-09-08T05:02:52.944Z,67.80
2018-09-08T05:05:23.433Z,67.60
2018-09-08T05:07:53.782Z,67.60
2018-09-08T05:10:24.201Z,67.30
2018-09-08T05:12:54.887Z,65.90
2018-09-08T05:15:25.375Z,67.20
2018-09-08T05:17:55.988Z,67.50
2018-09-08T05:20:26.553Z,67.50
2018-09-08T05:22:57.018Z,67.20
2018-09-08T05:25:27.496Z,67.10
2018-09-08T05:27:58.257Z,66.70
2018-09-08T05:30:28.779Z,66.80
2018-09-08T05:32:59.273Z,66.80
2018-09-08T05:35:29.736Z,67.20
2018-09-08T05:38:00.265Z,65.80
2018-09-08T05:40:30.671Z,66.90
2018-09-08T05:43:01.110Z,67.10
2018-09-08T05:45:32.677Z,66.20
2018-09-08T05:48:04.558Z,67.60
2018-09-08T05:50:34.971Z,67.10
2018-09-08T05:53:05.483Z,67.80
2018-09-08T05:55:36.668Z,67.60
2018-09-08T05:58:07.458Z,67.80
2018-09-08T06:00:38.989Z,68.00
2018-09-08T06:03:10.342Z,68.80
2018-09-08T06:05:42.717Z,69.20
2018-09-08T06:08:13.391Z,68.60
2018-09-08T06:10:45.605Z,68.10
2018-09-08T06:13:16.633Z,67.90
2018-09-08T06:15:48.310Z,68.00
2018-09-08T06:18:21.655Z,66.80
2018-09-08T06:20:52.622Z,67.40
2018-09-08T06:23:23.966Z,67.30
2018-09-08T06:25:54.976Z,66.70
2018-09-08T06:28:25.805Z,67.00
2018-09-08T06:30:56.870Z,66.70
2018-09-08T06:33:29.280Z,65.80
2018-09-08T06:36:00.233Z,66.40
2018-09-08T06:38:31.830Z,66.20
2018-09-08T06:41:04.501Z,66.30
2018-09-08T06:43:36.827Z,66.40
2018-09-08T06:46:09.260Z,65.80
2018-09-08T06:48:40.414Z,66.20
2018-09-08T06:51:11.450Z,66.00
2018-09-08T06:53:42.977Z,65.80
2018-09-08T06:56:14.340Z,65.70
2018-09-08T06:58:45.334Z,65.60
2018-09-08T07:01:16.480Z,65.80
2018-09-08T07:03:47.769Z,65.20
2018-09-08T07:06:18.670Z,64.90
2018-09-08T07:08:51.318Z,64.60
2018-09-08T07:11:26.838Z,65.30
2018-09-08T07:14:01.105Z,66.60
2018-09-08T07:16:36.282Z,67.10
2018-09-08T07:19:12.246Z,67.50
2018-09-08T07:21:44.621Z,67.10
2018-09-08T07:24:18.209Z,67.60
2018-09-08T07:26:51.343Z,67.80
2018-09-08T07:29:24.028Z,68.10
2018-09-08T07:31:55.953Z,67.80
2018-09-08T07:34:28.456Z,67.80
2018-09-08T07:37:06.722Z,66.50
2018-09-08T07:39:43.171Z,64.60
2018-09-08T07:42:15.971Z,63.00
2018-09-08T07:44:49.944Z,62.50
2018-09-08T07:47:25.030Z,62.30
2018-09-08T07:49:59.124Z,61.90
2018-09-08T07:52:32.600Z,60.10
2018-09-08T07:55:09.395Z,60.90
2018-09-08T07:57:41.664Z,58.40
2018-09-08T08:00:15.345Z,59.30
2018-09-08T08:02:46.730Z,58.50
2018-09-08T08:05:36.377Z,59.00
2018-09-08T08:08:12.978Z,58.80
2018-09-08T08:10:45.934Z,57.90
2018-09-08T08:13:18.702Z,57.10
2018-09-08T08:15:50.063Z,56.40
2018-09-08T08:18:22.527Z,54.00
2018-09-08T08:20:58.524Z,56.20
2018-09-08T08:23:34.721Z,55.00
2018-09-08T08:26:14.440Z,54.30
2018-09-08T08:28:46.425Z,53.70
2018-09-08T08:31:21.175Z,53.40
2018-09-08T08:33:54.641Z,53.20
2018-09-08T08:36:27.721Z,53.70
2018-09-08T08:39:04.658Z,53.60
2018-09-08T08:41:43.715Z,54.80
2018-09-08T08:44:15.618Z,54.80
2018-09-08T08:46:48.460Z,54.90
2018-09-08T08:49:21.967Z,54.40
2018-09-08T08:52:04.254Z,54.30
2018-09-08T08:54:47.612Z,54.60
2018-09-08T08:57:19.212Z,55.20
2018-09-08T08:59:51.089Z,54.50
2018-09-08T09:02:22.950Z,54.00
2018-09-08T09:05:00.484Z,53.60
2018-09-08T09:07:33.889Z,51.90
2018-09-08T09:10:07.684Z,52.60
2018-09-08T09:12:40.851Z,52.50
2018-09-08T09:15:14.580Z,52.50
2018-09-08T09:17:47.097Z,52.20
2018-09-08T09:20:29.652Z,52.00
2018-09-08T09:23:12.595Z,52.60
2018-09-08T09:25:45.916Z,52.80
2018-09-08T09:28:22.802Z,53.90
2018-09-08T09:31:01.666Z,54.60
2018-09-08T09:33:36.346Z,55.70
2018-09-08T09:36:09.525Z,55.90
2018-09-08T09:38:42.378Z,55.50
2018-09-08T09:41:17.045Z,53.60
2018-09-08T09:43:49.940Z,53.50
2018-09-08T09:46:24.116Z,54.00
2018-09-08T09:48:59.167Z,53.70
2018-09-08T09:51:31.784Z,53.20
2018-09-08T09:54:11.320Z,52.70
2018-09-08T09:56:44.968Z,50.50
2018-09-08T09:59:17.420Z,50.10
2018-09-08T10:01:53.889Z,50.40
2018-09-08T10:04:28.087Z,50.40
2018-09-08T10:07:02.816Z,50.40
2018-09-08T10:09:38.485Z,50.90
2018-09-08T10:12:12.836Z,50.80
2018-09-08T10:14:46.310Z,51.10
2018-09-08T10:17:18.321Z,51.50
2018-09-08T10:19:50.796Z,50.00
2018-09-08T10:22:24.991Z,50.40
2018-09-08T10:24:58.159Z,50.10
2018-09-08T10:27:34.335Z,49.70
2018-09-08T10:30:10.759Z,50.00
2018-09-08T10:32:43.757Z,50.00
2018-09-08T10:35:20.623Z,50.20
2018-09-08T10:37:56.090Z,50.60
2018-09-08T10:40:33.541Z,50.70
2018-09-08T10:43:08.476Z,49.60
2018-09-08T10:45:46.530Z,49.50
2018-09-08T10:48:21.838Z,49.00
2018-09-08T10:50:56.827Z,49.30
2018-09-08T10:53:37.880Z,49.10
2018-09-08T10:56:14.144Z,49.50
2018-09-08T10:58:46.239Z,47.90
2018-09-08T11:01:18.750Z,48.40
2018-09-08T11:03:53.273Z,47.80
2018-09-08T11:06:27.587Z,46.00
2018-09-08T11:09:03.765Z,45.60
2018-09-08T11:11:38.668Z,45.00
2018-09-08T11:14:11.394Z,45.60
2018-09-08T11:16:44.143Z,46.20
2018-09-08T11:19:18.504Z,45.90
2018-09-08T11:21:53.991Z,45.80
2018-09-08T11:24:27.997Z,46.50
2018-09-08T11:27:02.133Z,47.10
2018-09-08T11:29:37.897Z,46.80
2018-09-08T11:32:10.781Z,46.60
2018-09-08T11:34:44.689Z,46.10
2018-09-08T11:37:19.350Z,46.30
2018-09-08T11:39:52.809Z,46.10
2018-09-08T11:42:25.987Z,46.00
2018-09-08T11:45:05.178Z,45.70
2018-09-08T11:47:40.652Z,45.80
2018-09-08T11:50:17.009Z,45.40
2018-09-08T11:52:54.695Z,44.80
2018-09-08T11:55:27.500Z,45.20
2018-09-08T11:57:59.641Z,44.60
2018-09-08T12:00:33.343Z,45.70
2018-09-08T12:03:06.204Z,45.50
2018-09-08T12:05:38.673Z,45.80
2018-09-08T12:08:21.087Z,45.30
2018-09-08T12:10:55.582Z,44.50
2018-09-08T12:13:33.156Z,43.90
2018-09-08T12:16:06.746Z,43.80
2018-09-08T12:18:40.160Z,44.20
2018-09-08T12:23:53.565Z,45.60
2018-09-08T12:26:27.375Z,44.90
2018-09-08T12:29:01.172Z,45.10
2018-09-08T12:31:34.077Z,45.70
2018-09-08T12:34:08.136Z,44.60
2018-09-08T12:36:42.462Z,45.00
2018-09-08T12:39:14.407Z,44.70
2018-09-08T12:41:48.803Z,44.40
2018-09-08T12:44:24.114Z,44.50
2018-09-08T12:46:55.993Z,44.50
2018-09-08T12:49:30.804Z,44.10
2018-09-08T12:52:08.663Z,45.00
2018-09-08T12:54:42.871Z,44.50
2018-09-08T12:57:23.878Z,44.60
2018-09-08T13:00:00.614Z,44.20
2018-09-08T13:02:36.678Z,45.00
2018-09-08T13:05:15.081Z,45.10
2018-09-08T13:07:47.669Z,43.40
2018-09-08T13:10:23.908Z,43.20
2018-09-08T13:13:04.535Z,43.40
2018-09-08T13:15:42.121Z,43.50
2018-09-08T13:18:19.113Z,43.00
2018-09-08T13:20:58.445Z,42.60
2018-09-08T13:23:30.811Z,42.00
2018-09-08T13:26:12.061Z,41.50
2018-09-08T13:28:45.987Z,41.20
2018-09-08T13:31:28.005Z,40.00
2018-09-08T13:34:04.161Z,40.00
2018-09-08T13:36:43.327Z,40.00
2018-09-08T13:39:15.717Z,40.80
2018-09-08T13:41:50.805Z,41.50
2018-09-08T13:44:24.187Z,41.80
2018-09-08T13:46:59.449Z,40.90
2018-09-08T13:49:33.290Z,41.00
2018-09-08T13:52:10.620Z,40.30
2018-09-08T13:54:43.809Z,39.60
2018-09-08T13:57:20.258Z,39.30
2018-09-08T13:59:56.178Z,39.40
2018-09-08T14:02:39.123Z,39.50
2018-09-08T14:05:15.053Z,39.60
2018-09-08T14:07:56.635Z,39.60
2018-09-08T14:10:29.721Z,38.90
2018-09-08T14:13:03.882Z,39.20
2018-09-08T14:15:38.344Z,38.60
2018-09-08T14:18:12.333Z,38.40
2018-09-08T14:20:47.791Z,37.90
2018-09-08T14:23:21.805Z,38.50
2018-09-08T14:25:53.872Z,38.20
2018-09-08T14:28:26.124Z,39.10
2018-09-08T14:30:59.524Z,38.70
2018-09-08T14:33:32.287Z,38.90
2018-09-08T14:36:06.720Z,39.10
2018-09-08T14:38:40.826Z,38.90
2018-09-08T14:41:14.121Z,38.60
2018-09-08T14:43:47.731Z,38.80
2018-09-08T14:46:24.116Z,38.70
2018-09-08T14:49:00.269Z,39.00
2018-09-08T14:51:43.395Z,38.20
2018-09-08T14:54:19.198Z,39.60
2018-09-08T14:56:58.146Z,39.60
2018-09-08T14:59:34.152Z,39.30
2018-09-08T15:02:06.391Z,39.40
2018-09-08T15:04:42.515Z,38.40
2018-09-08T15:07:16.454Z,38.00
2018-09-08T15:09:48.662Z,37.30
2018-09-08T15:12:21.601Z,38.80
2018-09-08T15:14:53.689Z,37.90
2018-09-08T15:17:29.368Z,37.00
2018-09-08T15:20:00.793Z,38.50
2018-09-08T15:22:35.242Z,38.90
2018-09-08T15:25:10.492Z,38.50
2018-09-08T15:27:43.149Z,39.00
2018-09-08T15:30:16.864Z,38.70
2018-09-08T15:32:49.157Z,38.90
2018-09-08T15:35:22.790Z,39.30
2018-09-08T15:37:55.597Z,39.50
2018-09-08T15:40:28.678Z,39.40
2018-09-08T15:43:05.098Z,39.20
2018-09-08T15:45:43.063Z,40.20
2018-09-08T15:48:18.296Z,40.40
2018-09-08T15:50:53.829Z,39.80
2018-09-08T15:53:26.072Z,39.80
2018-09-08T15:56:01.272Z,40.20
2018-09-08T15:58:35.959Z,39.40
2018-09-08T16:01:10.238Z,39.10
2018-09-08T16:03:46.682Z,39.00
2018-09-08T16:06:21.221Z,39.40
2018-09-08T16:08:54.583Z,39.50
2018-09-08T16:11:29.808Z,39.40
2018-09-08T16:14:03.984Z,39.50
2018-09-08T16:16:37.660Z,39.40
2018-09-08T16:19:10.927Z,39.80
2018-09-08T16:21:44.645Z,39.90
2018-09-08T16:24:17.014Z,39.80
2018-09-08T16:26:51.569Z,41.00
2018-09-08T16:29:23.731Z,40.20
2018-09-08T16:31:55.408Z,40.80
2018-09-08T16:34:33.460Z,41.10
2018-09-08T16:37:08.343Z,41.20
2018-09-08T16:39:41.346Z,40.90
2018-09-08T16:42:18.584Z,41.20
2018-09-08T16:44:52.331Z,41.30
2018-09-08T16:47:27.776Z,41.10
2018-09-08T16:50:06.057Z,41.60
2018-09-08T16:52:39.188Z,41.80
2018-09-08T16:55:11.504Z,41.60
2018-09-08T16:57:46.239Z,41.80
2018-09-08T17:00:21.730Z,42.20
2018-09-08T17:02:54.449Z,42.20
2018-09-08T17:05:29.800Z,42.20
2018-09-08T17:08:04.932Z,42.00
2018-09-08T17:10:38.274Z,42.40
2018-09-08T17:13:12.148Z,43.80
2018-09-08T17:15:44.387Z,43.80
2018-09-08T17:18:17.130Z,43.90
2018-09-08T17:20:53.696Z,44.80
2018-09-08T17:23:26.349Z,45.90
2018-09-08T17:25:59.116Z,45.60
2018-09-08T17:28:34.054Z,45.60
2018-09-08T17:31:09.357Z,46.50
2018-09-08T17:33:45.540Z,45.60
2018-09-08T17:36:22.672Z,47.40
2018-09-08T17:38:58.703Z,47.80
2018-09-08T17:41:30.804Z,47.40
2018-09-08T17:44:09.686Z,47.50
2018-09-08T17:46:46.075Z,47.00
2018-09-08T17:49:18.761Z,48.50
2018-09-08T17:51:50.443Z,50.10
2018-09-08T17:54:22.490Z,49.20
2018-09-08T17:56:55.581Z,49.20
2018-09-08T17:59:29.942Z,48.90
2018-09-08T18:02:12.851Z,50.00
2018-09-08T18:04:49.372Z,50.50
2018-09-08T18:07:33.291Z,51.00
2018-09-08T18:10:11.491Z,51.40
2018-09-08T18:12:47.938Z,51.40
2018-09-08T18:15:27.931Z,52.00
2018-09-08T18:18:06.800Z,52.00
2018-09-08T18:20:41.365Z,51.80
2018-09-08T18:23:14.910Z,52.30
2018-09-08T18:25:49.524Z,52.60
2018-09-08T18:28:24.594Z,52.30
2018-09-08T18:30:58.058Z,52.30
2018-09-08T18:33:33.429Z,53.20
2018-09-08T18:36:17.692Z,53.00
2018-09-08T18:38:50.787Z,54.10
2018-09-08T18:41:23.248Z,54.00
2018-09-08T18:43:58.628Z,54.00
2018-09-08T18:46:34.395Z,54.10
2018-09-08T18:49:10.740Z,54.60
2018-09-08T18:51:48.045Z,54.70
2018-09-08T18:54:42.584Z,55.30
2018-09-08T18:57:18.253Z,54.30
2018-09-08T18:59:53.253Z,55.10
2018-09-08T19:02:27.364Z,55.90
2018-09-08T19:05:07.878Z,56.30
2018-09-08T19:07:45.781Z,56.70
2018-09-08T19:10:21.105Z,57.10
2018-09-08T19:13:01.967Z,57.50
2018-09-08T19:15:42.206Z,57.60
2018-09-08T19:20:57.910Z,56.80
2018-09-08T19:23:36.433Z,56.60
2018-09-08T19:26:08.780Z,57.40
2018-09-08T19:28:47.690Z,57.90
2018-09-08T19:31:21.989Z,57.50
2018-09-08T19:33:55.440Z,57.10
2018-09-08T19:36:27.938Z,57.10
2018-09-08T19:39:03.074Z,56.70
2018-09-08T19:41:37.308Z,56.50
2018-09-08T19:44:12.386Z,56.80
2018-09-08T19:46:50.624Z,57.20
2018-09-08T19:49:27.037Z,58.30
2018-09-08T19:52:06.120Z,58.80
2018-09-08T19:54:38.887Z,58.40
2018-09-08T19:57:23.814Z,58.10
2018-09-08T20:00:00.564Z,58.70
2018-09-08T20:02:36.414Z,58.30
2018-09-08T20:18:32.076Z,59.20
2018-09-08T20:21:03.260Z,59.10
2018-09-08T20:23:33.571Z,60.10
2018-09-08T20:26:04.413Z,58.60
2018-09-08T20:28:34.864Z,58.50
2018-09-08T20:31:06.037Z,58.50
2018-09-08T20:33:36.725Z,58.50
2018-09-08T20:36:07.231Z,58.60
2018-09-08T20:38:38.256Z,59.50
2018-09-08T20:41:08.610Z,59.10
2018-09-08T20:43:38.950Z,58.90
2018-09-08T20:46:10.276Z,58.60
2018-09-08T20:48:41.380Z,58.80
2018-09-08T20:51:13.997Z,59.10
2018-09-08T20:53:44.379Z,59.80
2018-09-08T20:56:14.567Z,58.80
2018-09-08T20:58:44.938Z,58.80
2018-09-08T21:01:15.263Z,58.90
2018-09-08T21:03:45.589Z,58.60
2018-09-08T21:06:16.651Z,58.80
2018-09-08T21:08:48.121Z,59.00
2018-09-08T21:11:18.528Z,59.00
2018-09-08T21:13:52.482Z,59.00
2018-09-08T21:16:22.719Z,58.70
2018-09-08T21:18:52.959Z,58.90
2018-09-08T21:21:24.034Z,59.30
2018-09-08T21:23:55.420Z,59.30
2018-09-08T21:26:27.506Z,59.00
2018-09-08T21:28:59.403Z,59.10
2018-09-08T21:31:31.657Z,59.40
2018-09-08T21:34:04.640Z,60.40
2018-09-08T21:36:35.638Z,59.90
2018-09-08T21:39:08.857Z,59.60
2018-09-08T21:41:44.019Z,59.50
2018-09-08T21:44:14.496Z,59.30
2018-09-08T21:46:46.308Z,59.30
2018-09-08T21:49:17.692Z,59.20
2018-09-08T21:51:47.507Z,59.50
2018-09-08T21:54:18.172Z,58.90
2018-09-08T21:56:48.517Z,59.00
2018-09-08T21:59:21.590Z,59.50
2018-09-08T22:01:53.008Z,61.00
2018-09-08T22:04:24.469Z,59.90
2018-09-08T22:07:03.291Z,60.10
2018-09-08T22:09:34.271Z,60.10
2018-09-08T22:12:12.838Z,60.60
2018-09-08T22:14:44.890Z,61.90
2018-09-08T22:17:16.394Z,60.90
2018-09-08T22:19:48.926Z,60.80
2018-09-08T22:22:27.854Z,61.40
2018-09-08T22:24:58.564Z,60.70
2018-09-08T22:27:29.486Z,60.80
2018-09-08T22:30:03.214Z,61.40
2018-09-08T22:32:35.373Z,61.10
2018-09-08T22:35:09.637Z,61.30
2018-09-08T22:37:41.234Z,61.50
2018-09-08T22:40:11.204Z,61.40
2018-09-08T22:42:42.081Z,62.10
2018-09-08T22:45:16.680Z,62.00
2018-09-08T22:47:47.115Z,61.60
2018-09-08T22:50:18.547Z,61.40
2018-09-08T22:52:48.327Z,61.20
2018-09-08T22:55:18.899Z,61.40
2018-09-08T22:57:50.895Z,61.50
2018-09-08T23:00:21.938Z,61.20
2018-09-08T23:02:57.648Z,61.30
2018-09-08T23:05:28.388Z,61.60
2018-09-08T23:07:59.736Z,62.60
2018-09-08T23:10:31.313Z,61.40
2018-09-08T23:13:02.567Z,60.30
2018-09-08T23:15:34.293Z,61.90
2018-09-08T23:18:05.687Z,61.90
2018-09-08T23:20:35.818Z,61.50
2018-09-08T23:23:08.601Z,61.50
2018-09-08T23:25:39.732Z,61.70
2018-09-08T23:28:10.863Z,62.10
2018-09-08T23:30:41.228Z,62.60
2018-09-08T23:33:11.642Z,62.40
2018-09-08T23:35:41.935Z,62.50
2018-09-08T23:38:11.955Z,62.30
2018-09-08T23:40:46.740Z,62.30
2018-09-08T23:43:16.735Z,62.40
2018-09-08T23:45:46.960Z,62.60
2018-09-08T23:48:17.425Z,63.20
2018-09-08T23:50:47.187Z,62.20
2018-09-08T23:53:17.265Z,62.70
2018-09-08T23:55:47.708Z,62.60
2018-09-08T23:58:17.436Z,62.70
